Time;durP1;ratioP1;P1;durP2;ratioP2;P2;SDS_P1;SDS_P2;PMS_P1;PMS_P2;Temp;Humidity;BMP_temperature;BMP_pressure;BME280_temperature;BME280_humidity;BME280_pressure;Samples;Min_cycle;Max_cycle;Signal;HPM_P1;HPM_P2
2022/04/08 00:01:35;;;;;;;5.93;1.90;;;;;;;;;;4996910;28;20191;-36
2022/04/08 00:04:01;;;;;;;5.97;2.17;;;;;;;;;;4996704;28;20181;-35
2022/04/08 00:06:27;;;;;;;6.60;1.90;;;;;;;;;;4992613;28;20598;-35
2022/04/08 00:08:53;;;;;;;9.47;2.17;;;;;;;;;;4995192;28;20185;-36
2022/04/08 00:11:20;;;;;;;9.07;2.30;;;;;;;;;;5000472;28;20613;-35
2022/04/08 00:13:51;;;;;;;6.80;2.00;;;;;;;;;;4997381;28;20708;-36
2022/04/08 00:16:17;;;;;;;6.57;2.30;;;;;;;;;;4997094;28;20247;-36
2022/04/08 00:18:45;;;;;;;5.50;2.17;;;;;;;;;;4991329;28;20620;-36
2022/04/08 00:21:11;;;;;;;6.77;2.20;;;;;;;;;;4999270;28;20792;-35
2022/04/08 00:23:37;;;;;;;5.83;2.30;;;;;;;;;;4998745;28;20184;-36
2022/04/08 00:26:04;;;;;;;6.60;1.97;;;;;;;;;;4995754;28;20320;-36
2022/04/08 00:28:30;;;;;;;6.70;1.80;;;;;;;;;;4995274;28;20292;-36
2022/04/08 00:30:57;;;;;;;8.47;1.93;;;;;;;;;;5000538;28;20225;-35
2022/04/08 00:33:23;;;;;;;8.67;2.00;;;;;;;;;;4994509;28;20437;-35
2022/04/08 00:35:49;;;;;;;4.17;1.93;;;;;;;;;;4998165;28;20736;-35
2022/04/08 00:38:15;;;;;;;6.17;1.90;;;;;;;;;;5002133;28;20181;-35
2022/04/08 00:40:41;;;;;;;11.37;2.67;;;;;;;;;;4999192;28;20180;-35
2022/04/08 00:43:14;;;;;;;9.50;2.40;;;;;;;;;;4997382;28;20596;-36
2022/04/08 00:45:40;;;;;;;6.97;2.40;;;;;;;;;;4994750;28;20172;-35
2022/04/08 00:48:07;;;;;;;6.33;2.00;;;;;;;;;;4999439;28;20966;-35
2022/04/08 00:50:35;;;;;;;6.97;2.20;;;;;;;;;;4998239;28;20200;-36
2022/04/08 00:53:01;;;;;;;6.50;2.20;;;;;;;;;;4997772;28;20192;-35
2022/04/08 00:55:27;;;;;;;9.27;2.40;;;;;;;;;;4995522;28;20327;-35
2022/04/08 00:57:53;;;;;;;6.73;2.07;;;;;;;;;;5001439;28;20168;-35
2022/04/08 01:00:22;;;;;;;7.07;2.13;;;;;;;;;;4993990;28;20938;-35
2022/04/08 01:02:48;;;;;;;6.90;2.40;;;;;;;;;;4997579;28;20707;-35
2022/04/08 01:05:15;;;;;;;6.30;2.10;;;;;;;;;;4999598;28;20179;-36
2022/04/08 01:07:41;;;;;;;5.73;2.20;;;;;;;;;;4995097;28;20516;-35
2022/04/08 01:10:07;;;;;;;5.80;2.00;;;;;;;;;;4995519;28;21754;-35
2022/04/08 01:12:33;;;;;;;6.77;2.10;;;;;;;;;;4995262;28;20789;-35
2022/04/08 01:14:59;;;;;;;6.13;2.27;;;;;;;;;;4996315;28;20200;-35
2022/04/08 01:17:26;;;;;;;7.57;2.37;;;;;;;;;;4997214;28;20276;-36
2022/04/08 01:19:52;;;;;;;8.10;2.30;;;;;;;;;;4994616;28;20258;-35
2022/04/08 01:22:19;;;;;;;6.20;2.17;;;;;;;;;;4994099;28;20632;-35
2022/04/08 01:24:48;;;;;;;4.57;1.90;;;;;;;;;;4993801;28;20478;-35
2022/04/08 01:27:15;;;;;;;5.73;2.10;;;;;;;;;;4993739;28;20184;-36
2022/04/08 01:29:41;;;;;;;6.53;1.80;;;;;;;;;;4999236;28;20200;-35
2022/04/08 01:32:07;;;;;;;8.47;2.27;;;;;;;;;;4996525;28;20817;-36
2022/04/08 01:34:33;;;;;;;6.57;2.10;;;;;;;;;;4996836;28;20184;-36
2022/04/08 01:36:59;;;;;;;6.33;1.93;;;;;;;;;;4991798;28;20949;-35
2022/04/08 01:39:25;;;;;;;4.37;1.53;;;;;;;;;;4997912;28;20417;-36
2022/04/08 01:41:51;;;;;;;4.77;1.90;;;;;;;;;;4998679;28;20188;-35
2022/04/08 01:44:17;;;;;;;6.23;1.90;;;;;;;;;;4993722;28;20649;-36
2022/04/08 01:46:43;;;;;;;4.20;1.53;;;;;;;;;;4992918;28;20298;-36
2022/04/08 01:49:10;;;;;;;7.10;2.03;;;;;;;;;;4995210;28;20585;-35
2022/04/08 01:51:36;;;;;;;3.93;1.77;;;;;;;;;;4998165;28;20176;-35
2022/04/08 01:54:02;;;;;;;6.93;1.80;;;;;;;;;;4998358;28;20291;-35
2022/04/08 01:56:28;;;;;;;7.53;2.03;;;;;;;;;;4993334;28;20288;-36
2022/04/08 01:58:54;;;;;;;8.13;1.97;;;;;;;;;;4995347;28;20180;-35
2022/04/08 02:01:20;;;;;;;5.57;2.10;;;;;;;;;;4994995;28;20204;-35
2022/04/08 02:03:46;;;;;;;5.73;1.90;;;;;;;;;;4992072;28;20278;-35
2022/04/08 02:06:13;;;;;;;8.37;1.80;;;;;;;;;;4994009;28;21079;-35
2022/04/08 02:08:39;;;;;;;7.03;2.17;;;;;;;;;;4995655;28;20734;-35
2022/04/08 02:11:05;;;;;;;6.90;1.73;;;;;;;;;;4993953;28;20180;-36
2022/04/08 02:13:33;;;;;;;6.63;2.10;;;;;;;;;;4998024;28;20800;-36
2022/04/08 02:15:59;;;;;;;3.90;1.60;;;;;;;;;;4992931;28;20315;-36
2022/04/08 02:18:25;;;;;;;5.67;1.97;;;;;;;;;;4989308;28;20298;-36
2022/04/08 02:20:51;;;;;;;4.80;2.23;;;;;;;;;;4995191;28;20727;-35
2022/04/08 02:23:17;;;;;;;5.57;1.87;;;;;;;;;;4998643;28;20759;-35
2022/04/08 02:25:46;;;;;;;8.83;2.03;;;;;;;;;;4993556;28;20283;-35
2022/04/08 02:28:12;;;;;;;5.50;1.87;;;;;;;;;;4989689;28;20199;-36
2022/04/08 02:30:38;;;;;;;7.17;2.00;;;;;;;;;;4996624;28;20509;-35
2022/04/08 02:33:04;;;;;;;7.90;2.27;;;;;;;;;;4993829;28;20189;-35
2022/04/08 02:35:34;;;;;;;5.40;2.07;;;;;;;;;;4996486;28;20200;-35
2022/04/08 02:38:00;;;;;;;7.13;2.43;;;;;;;;;;4992841;28;20582;-36
2022/04/08 02:40:26;;;;;;;6.43;1.87;;;;;;;;;;5003349;28;20585;-35
2022/04/08 02:42:52;;;;;;;6.60;1.97;;;;;;;;;;4995177;28;20196;-35
2022/04/08 02:45:18;;;;;;;5.23;1.83;;;;;;;;;;4996957;28;20775;-36
2022/04/08 02:47:45;;;;;;;7.60;2.07;;;;;;;;;;4993388;28;20609;-36
2022/04/08 02:50:11;;;;;;;7.10;2.43;;;;;;;;;;4987836;28;20188;-35
2022/04/08 02:52:38;;;;;;;5.13;1.87;;;;;;;;;;4993888;28;20516;-35
2022/04/08 02:55:04;;;;;;;4.93;2.10;;;;;;;;;;4995577;28;20687;-36
2022/04/08 02:57:31;;;;;;;9.43;2.63;;;;;;;;;;4995677;28;20176;-35
2022/04/08 02:59:57;;;;;;;4.93;2.10;;;;;;;;;;4993723;28;20664;-36
2022/04/08 03:02:23;;;;;;;5.90;1.97;;;;;;;;;;4996639;28;20712;-36
2022/04/08 03:04:49;;;;;;;10.53;2.50;;;;;;;;;;4998697;28;20209;-35
2022/04/08 03:07:15;;;;;;;7.90;2.30;;;;;;;;;;5001111;28;20298;-43
2022/04/08 03:09:41;;;;;;;3.90;1.70;;;;;;;;;;4994253;28;20192;-36
2022/04/08 03:12:08;;;;;;;6.13;2.30;;;;;;;;;;4998611;28;20450;-35
2022/04/08 03:14:34;;;;;;;5.63;1.90;;;;;;;;;;5001019;28;20199;-35
2022/04/08 03:17:01;;;;;;;8.33;2.13;;;;;;;;;;4998164;28;20236;-35
2022/04/08 03:19:27;;;;;;;5.60;2.00;;;;;;;;;;5001725;28;20184;-36
2022/04/08 03:21:54;;;;;;;5.13;2.00;;;;;;;;;;4999611;28;20168;-35
2022/04/08 03:24:20;;;;;;;4.63;1.80;;;;;;;;;;4998558;28;20282;-35
2022/04/08 03:26:48;;;;;;;4.83;2.10;;;;;;;;;;4997776;28;20176;-35
2022/04/08 03:29:14;;;;;;;7.57;1.97;;;;;;;;;;4999043;28;20327;-35
2022/04/08 03:31:40;;;;;;;5.40;2.10;;;;;;;;;;4997487;28;20195;-35
2022/04/08 03:34:06;;;;;;;7.83;2.53;;;;;;;;;;4997098;28;20647;-35
2022/04/08 03:36:33;;;;;;;4.47;1.97;;;;;;;;;;4995613;28;20278;-35
2022/04/08 03:38:59;;;;;;;6.53;2.00;;;;;;;;;;5000296;28;20234;-35
2022/04/08 03:41:25;;;;;;;9.43;2.57;;;;;;;;;;5001477;28;20500;-35
2022/04/08 03:43:51;;;;;;;6.03;2.30;;;;;;;;;;4993401;28;20173;-35
2022/04/08 03:46:17;;;;;;;6.67;2.33;;;;;;;;;;4998759;28;20318;-35
2022/04/08 03:48:43;;;;;;;6.40;2.20;;;;;;;;;;4999897;28;20173;-35
2022/04/08 03:51:09;;;;;;;7.07;2.53;;;;;;;;;;4996624;28;20176;-36
2022/04/08 03:53:36;;;;;;;7.87;3.07;;;;;;;;;;4995728;28;20643;-35
2022/04/08 03:56:02;;;;;;;5.43;2.53;;;;;;;;;;4998488;28;20196;-35
2022/04/08 03:58:28;;;;;;;8.77;2.60;;;;;;;;;;4995086;28;20696;-35
2022/04/08 04:00:55;;;;;;;6.47;2.50;;;;;;;;;;4992754;28;20226;-36
2022/04/08 04:03:21;;;;;;;9.83;2.67;;;;;;;;;;4996017;28;20175;-36
2022/04/08 04:05:48;;;;;;;9.47;2.40;;;;;;;;;;4999691;28;20577;-35
2022/04/08 04:08:20;;;;;;;12.17;3.17;;;;;;;;;;4996748;28;20184;-35
2022/04/08 04:10:46;;;;;;;14.33;3.57;;;;;;;;;;4993292;28;20742;-35
2022/04/08 04:13:12;;;;;;;18.10;4.90;;;;;;;;;;4994965;28;20547;-35
2022/04/08 04:15:39;;;;;;;30.90;5.80;;;;;;;;;;4992875;28;20297;-35
2022/04/08 04:18:05;;;;;;;23.90;5.37;;;;;;;;;;4993841;28;20177;-35
2022/04/08 04:20:31;;;;;;;15.87;3.40;;;;;;;;;;4995677;28;20278;-35
2022/04/08 04:22:57;;;;;;;20.87;4.60;;;;;;;;;;4999778;28;20631;-34
2022/04/08 04:25:23;;;;;;;15.63;3.80;;;;;;;;;;4994818;28;20187;-35
2022/04/08 04:27:50;;;;;;;17.03;3.73;;;;;;;;;;4998992;28;20464;-35
2022/04/08 04:30:16;;;;;;;16.73;3.57;;;;;;;;;;4994501;28;20259;-36
2022/04/08 04:32:42;;;;;;;16.50;4.20;;;;;;;;;;4993046;28;20479;-36
2022/04/08 04:35:08;;;;;;;10.57;3.13;;;;;;;;;;4998029;28;20258;-36
2022/04/08 04:37:35;;;;;;;7.63;2.90;;;;;;;;;;4996099;28;20621;-36
2022/04/08 04:40:01;;;;;;;7.30;2.77;;;;;;;;;;4996651;28;20173;-35
2022/04/08 04:42:28;;;;;;;7.37;2.70;;;;;;;;;;4999861;28;20290;-35
2022/04/08 04:44:57;;;;;;;10.10;3.30;;;;;;;;;;4999123;28;20287;-34
2022/04/08 04:47:24;;;;;;;13.03;3.40;;;;;;;;;;4993589;28;20178;-35
2022/04/08 04:49:50;;;;;;;7.73;3.00;;;;;;;;;;4995517;28;20595;-35
2022/04/08 04:52:16;;;;;;;9.40;3.43;;;;;;;;;;5000254;28;20732;-35
2022/04/08 04:54:42;;;;;;;16.37;4.17;;;;;;;;;;4996830;28;20702;-35
2022/04/08 04:57:08;;;;;;;8.23;3.37;;;;;;;;;;4997519;28;20236;-35
2022/04/08 04:59:34;;;;;;;10.73;3.70;;;;;;;;;;4996504;28;20607;-35
2022/04/08 05:02:01;;;;;;;16.97;4.40;;;;;;;;;;4995689;28;20541;-35
2022/04/08 05:04:27;;;;;;;20.13;4.93;;;;;;;;;;4995058;28;20924;-35
2022/04/08 05:06:53;;;;;;;16.90;4.47;;;;;;;;;;4998696;28;20459;-35
2022/04/08 05:09:19;;;;;;;13.77;3.50;;;;;;;;;;4993047;28;20636;-35
2022/04/08 05:11:45;;;;;;;12.23;3.57;;;;;;;;;;4991784;28;20211;-36
2022/04/08 05:14:11;;;;;;;11.83;3.47;;;;;;;;;;4995262;28;20446;-35
2022/04/08 05:16:37;;;;;;;10.63;3.53;;;;;;;;;;4997034;28;20770;-35
2022/04/08 05:19:03;;;;;;;8.60;3.50;;;;;;;;;;4994945;28;20628;-35
2022/04/08 05:21:30;;;;;;;7.50;3.50;;;;;;;;;;4992911;28;20484;-35
2022/04/08 05:23:56;;;;;;;14.70;4.40;;;;;;;;;;4987004;28;20173;-36
2022/04/08 05:26:23;;;;;;;11.27;4.10;;;;;;;;;;4996917;28;20610;-35
2022/04/08 05:28:49;;;;;;;14.30;4.20;;;;;;;;;;4999716;28;20245;-35
2022/04/08 05:31:15;;;;;;;16.33;4.13;;;;;;;;;;4991256;28;20931;-35
2022/04/08 05:33:41;;;;;;;12.93;3.90;;;;;;;;;;4996578;28;20180;-35
2022/04/08 05:36:07;;;;;;;13.13;4.37;;;;;;;;;;4997609;28;20472;-38
2022/04/08 05:38:34;;;;;;;22.20;4.83;;;;;;;;;;5014200;28;20890;-36
2022/04/08 05:41:00;;;;;;;21.37;5.53;;;;;;;;;;5030612;28;20259;-36
2022/04/08 05:43:26;;;;;;;21.07;4.90;;;;;;;;;;5027019;28;20271;-36
2022/04/08 05:45:52;;;;;;;17.07;5.23;;;;;;;;;;4999729;28;20180;-35
2022/04/08 05:48:19;;;;;;;14.23;4.87;;;;;;;;;;4998743;28;20496;-36
2022/04/08 05:50:45;;;;;;;13.87;4.83;;;;;;;;;;4998837;28;20173;-36
2022/04/08 05:53:11;;;;;;;10.20;4.43;;;;;;;;;;5005691;28;20923;-37
2022/04/08 05:55:37;;;;;;;16.50;4.70;;;;;;;;;;4997365;28;21025;-37
2022/04/08 05:58:03;;;;;;;16.57;5.27;;;;;;;;;;4997202;28;20348;-34
2022/04/08 06:00:31;;;;;;;17.17;5.30;;;;;;;;;;4997061;28;20375;-36
2022/04/08 06:02:57;;;;;;;20.20;5.20;;;;;;;;;;4994894;28;20514;-36
2022/04/08 06:05:24;;;;;;;19.87;4.90;;;;;;;;;;4997440;28;20708;-36
2022/04/08 06:07:51;;;;;;;15.70;4.80;;;;;;;;;;5007549;28;20806;-36
2022/04/08 06:10:22;;;;;;;17.70;5.03;;;;;;;;;;4997405;28;21294;-36
2022/04/08 06:12:57;;;;;;;9.90;4.43;;;;;;;;;;4998225;28;20218;-37
2022/04/08 06:15:24;;;;;;;17.93;4.93;;;;;;;;;;4997482;28;20669;-37
2022/04/08 06:17:51;;;;;;;13.10;4.40;;;;;;;;;;4994574;28;20276;-36
2022/04/08 06:20:18;;;;;;;14.67;4.53;;;;;;;;;;4999067;28;20335;-36
2022/04/08 06:22:45;;;;;;;14.37;4.27;;;;;;;;;;4995495;28;20209;-36
2022/04/08 06:25:13;;;;;;;16.00;4.47;;;;;;;;;;4995191;28;20172;-37
2022/04/08 06:27:39;;;;;;;18.87;4.60;;;;;;;;;;4996157;28;20199;-36
2022/04/08 06:30:09;;;;;;;13.00;4.10;;;;;;;;;;4999029;28;20222;-36
2022/04/08 06:32:36;;;;;;;16.10;4.17;;;;;;;;;;4996924;28;20476;-35
2022/04/08 06:35:02;;;;;;;13.70;4.57;;;;;;;;;;4996102;28;20333;-35
2022/04/08 06:37:28;;;;;;;15.20;4.30;;;;;;;;;;4997148;28;20529;-35
2022/04/08 06:39:55;;;;;;;15.50;4.50;;;;;;;;;;4998028;28;20553;-36
2022/04/08 06:42:21;;;;;;;18.47;4.60;;;;;;;;;;5001574;28;20351;-35
2022/04/08 06:44:48;;;;;;;11.67;4.00;;;;;;;;;;4998280;28;20164;-36
2022/04/08 06:47:14;;;;;;;12.97;3.80;;;;;;;;;;4995553;28;20260;-36
2022/04/08 06:49:43;;;;;;;10.60;3.03;;;;;;;;;;5001936;28;20631;-36
2022/04/08 06:52:10;;;;;;;11.07;3.73;;;;;;;;;;4998061;28;21041;-35
2022/04/08 06:54:36;;;;;;;12.57;3.23;;;;;;;;;;4999187;28;20270;-36
2022/04/08 06:57:02;;;;;;;10.97;3.50;;;;;;;;;;4998475;28;20516;-35
2022/04/08 06:59:28;;;;;;;10.87;3.73;;;;;;;;;;5001809;28;20169;-36
2022/04/08 07:01:54;;;;;;;15.60;4.00;;;;;;;;;;4997514;28;20211;-36
2022/04/08 07:04:20;;;;;;;10.20;2.93;;;;;;;;;;4998415;28;20739;-36
2022/04/08 07:06:46;;;;;;;10.97;3.00;;;;;;;;;;5000772;28;20669;-35
2022/04/08 07:09:12;;;;;;;10.93;3.10;;;;;;;;;;4995685;28;20837;-36
2022/04/08 07:11:38;;;;;;;13.50;3.57;;;;;;;;;;4993161;28;20653;-36
2022/04/08 07:14:04;;;;;;;9.50;2.90;;;;;;;;;;4994835;28;21150;-36
2022/04/08 07:16:31;;;;;;;8.73;3.27;;;;;;;;;;4992822;28;20192;-35
2022/04/08 07:18:57;;;;;;;12.90;2.90;;;;;;;;;;4998125;28;20238;-36
2022/04/08 07:21:23;;;;;;;7.97;2.70;;;;;;;;;;4994446;28;20219;-36
2022/04/08 07:23:50;;;;;;;10.87;3.23;;;;;;;;;;4991847;28;20587;-36
2022/04/08 07:26:18;;;;;;;8.90;2.90;;;;;;;;;;4993860;28;21159;-36
2022/04/08 07:28:44;;;;;;;10.00;2.87;;;;;;;;;;4995380;28;20350;-36
2022/04/08 07:31:11;;;;;;;8.73;3.07;;;;;;;;;;4999509;28;20243;-36
2022/04/08 07:33:37;;;;;;;9.73;3.13;;;;;;;;;;4996911;28;20212;-36
2022/04/08 07:36:04;;;;;;;11.70;3.53;;;;;;;;;;4996432;28;20666;-36
2022/04/08 07:38:30;;;;;;;11.70;3.87;;;;;;;;;;4992375;28;20176;-37
2022/04/08 07:40:57;;;;;;;8.90;3.80;;;;;;;;;;4997864;28;20176;-36
2022/04/08 07:43:24;;;;;;;11.27;3.33;;;;;;;;;;4994366;28;20257;-36
2022/04/08 07:45:50;;;;;;;11.43;3.07;;;;;;;;;;4994890;28;20557;-36
2022/04/08 07:48:16;;;;;;;11.90;3.10;;;;;;;;;;4998162;28;20423;-37
2022/04/08 07:50:42;;;;;;;15.40;3.23;;;;;;;;;;4996676;28;20208;-36
2022/04/08 07:53:08;;;;;;;12.37;3.43;;;;;;;;;;4996293;28;20332;-37
2022/04/08 07:55:34;;;;;;;9.70;3.30;;;;;;;;;;4997263;28;20180;-36
2022/04/08 07:58:01;;;;;;;9.70;3.27;;;;;;;;;;4995683;28;20176;-37
2022/04/08 08:00:28;;;;;;;9.77;2.77;;;;;;;;;;4991829;28;21095;-36
2022/04/08 08:02:55;;;;;;;9.07;2.80;;;;;;;;;;4998405;28;20183;-36
2022/04/08 08:05:21;;;;;;;8.43;2.53;;;;;;;;;;4996772;28;20319;-36
2022/04/08 08:07:55;;;;;;;9.93;2.97;;;;;;;;;;4995353;28;20230;-36
2022/04/08 08:10:22;;;;;;;13.40;4.07;;;;;;;;;;4999312;28;20320;-37
2022/04/08 08:12:49;;;;;;;23.23;4.30;;;;;;;;;;4998703;28;20181;-37
2022/04/08 08:15:28;;;;;;;12.13;3.73;;;;;;;;;;4998546;28;20230;-36
2022/04/08 08:17:55;;;;;;;12.47;5.80;;;;;;;;;;4990938;28;20681;-37
2022/04/08 08:20:22;;;;;;;20.40;9.67;;;;;;;;;;4999434;28;20434;-37
2022/04/08 08:22:48;;;;;;;17.27;8.77;;;;;;;;;;5002159;28;20180;-37
2022/04/08 08:25:15;;;;;;;17.83;6.97;;;;;;;;;;5001077;28;20172;-37
2022/04/08 08:27:43;;;;;;;11.80;5.37;;;;;;;;;;4998673;28;20712;-37
2022/04/08 08:30:11;;;;;;;8.43;3.60;;;;;;;;;;5001645;28;20180;-37
2022/04/08 08:32:41;;;;;;;10.27;3.13;;;;;;;;;;5002628;28;20897;-37
2022/04/08 08:35:10;;;;;;;8.67;3.10;;;;;;;;;;5000643;28;20651;-37
2022/04/08 08:37:37;;;;;;;13.60;3.53;;;;;;;;;;4998609;28;20266;-37
2022/04/08 08:40:04;;;;;;;8.37;2.93;;;;;;;;;;4998655;28;20176;-36
2022/04/08 08:42:30;;;;;;;8.77;3.80;;;;;;;;;;5003113;28;20180;-38
2022/04/08 08:44:56;;;;;;;7.67;3.50;;;;;;;;;;5001568;28;20409;-38
2022/04/08 08:47:23;;;;;;;11.30;3.10;;;;;;;;;;4997914;28;20262;-37
2022/04/08 08:49:50;;;;;;;7.50;2.23;;;;;;;;;;4998941;28;20191;-37
2022/04/08 08:52:20;;;;;;;5.77;2.00;;;;;;;;;;5000295;28;20181;-37
2022/04/08 08:54:47;;;;;;;4.10;1.70;;;;;;;;;;5004228;28;20191;-37
2022/04/08 08:57:16;;;;;;;9.63;1.67;;;;;;;;;;4996257;28;20201;-37
2022/04/08 08:59:44;;;;;;;8.87;1.87;;;;;;;;;;4996800;28;21055;-38
2022/04/08 09:02:12;;;;;;;5.57;1.70;;;;;;;;;;4996976;28;20220;-37
2022/04/08 09:04:41;;;;;;;3.80;1.50;;;;;;;;;;4996739;28;20788;-37
2022/04/08 09:07:27;;;;;;;4.43;1.67;;;;;;;;;;4996559;28;20310;-37
2022/04/08 09:09:54;;;;;;;5.30;1.50;;;;;;;;;;5002721;28;20506;-37
2022/04/08 09:12:20;;;;;;;7.63;1.70;;;;;;;;;;4997511;28;20214;-37
2022/04/08 09:14:50;;;;;;;4.87;1.43;;;;;;;;;;4994944;28;20177;-37
2022/04/08 09:17:18;;;;;;;5.23;1.50;;;;;;;;;;5001310;28;20563;-38
2022/04/08 09:19:47;;;;;;;3.17;1.37;;;;;;;;;;4997597;28;20181;-37
2022/04/08 09:22:13;;;;;;;5.93;1.57;;;;;;;;;;4995137;28;20215;-37
2022/04/08 09:24:39;;;;;;;2.83;1.30;;;;;;;;;;4999729;28;20176;-37
2022/04/08 09:27:05;;;;;;;3.83;1.50;;;;;;;;;;5001677;28;21190;-37
2022/04/08 09:29:32;;;;;;;4.30;1.20;;;;;;;;;;5000931;28;20184;-37
2022/04/08 09:31:58;;;;;;;5.07;1.60;;;;;;;;;;4999377;28;20185;-37
2022/04/08 09:34:24;;;;;;;6.57;1.50;;;;;;;;;;4998140;28;20588;-38
2022/04/08 09:36:50;;;;;;;6.00;1.23;;;;;;;;;;4996725;28;20207;-37
2022/04/08 09:39:16;;;;;;;2.53;1.00;;;;;;;;;;5002825;28;20184;-37
2022/04/08 09:41:43;;;;;;;3.83;1.03;;;;;;;;;;5001767;28;20369;-37
2022/04/08 09:44:10;;;;;;;5.60;1.20;;;;;;;;;;4998433;28;20191;-36
2022/04/08 09:46:37;;;;;;;5.77;1.00;;;;;;;;;;5002198;28;20189;-35
2022/04/08 09:49:04;;;;;;;3.50;1.10;;;;;;;;;;5003001;28;20437;-35
2022/04/08 09:51:32;;;;;;;4.37;1.30;;;;;;;;;;4998119;28;20719;-35
2022/04/08 09:53:59;;;;;;;4.40;1.20;;;;;;;;;;4995336;28;20429;-35
2022/04/08 09:56:29;;;;;;;3.77;1.40;;;;;;;;;;4998617;28;20278;-35
2022/04/08 09:59:16;;;;;;;5.67;1.30;;;;;;;;;;4995368;28;21009;-35
2022/04/08 10:01:44;;;;;;;2.23;1.03;;;;;;;;;;4995570;28;20218;-36
2022/04/08 10:04:11;;;;;;;5.73;1.40;;;;;;;;;;4999249;28;20385;-36
2022/04/08 10:06:41;;;;;;;3.13;1.13;;;;;;;;;;4998073;28;20199;-36
2022/04/08 10:09:11;;;;;;;3.47;0.93;;;;;;;;;;4996973;28;20438;-36
2022/04/08 10:11:57;;;;;;;3.27;1.00;;;;;;;;;;4998725;28;20239;-36
2022/04/08 10:14:31;;;;;;;4.97;1.07;;;;;;;;;;5000989;28;20184;-35
2022/04/08 10:16:58;;;;;;;2.73;0.90;;;;;;;;;;4998654;28;20888;-35
2022/04/08 10:19:24;;;;;;;1.93;0.90;;;;;;;;;;4993865;28;20212;-35
2022/04/08 10:21:55;;;;;;;4.23;1.00;;;;;;;;;;4996353;28;20609;-35
2022/04/08 10:24:25;;;;;;;3.00;1.20;;;;;;;;;;5002488;28;20219;-35
2022/04/08 10:27:00;;;;;;;3.37;1.20;;;;;;;;;;4996547;28;20724;-35
2022/04/08 10:29:26;;;;;;;2.97;1.13;;;;;;;;;;4994974;28;20431;-35
2022/04/08 10:31:56;;;;;;;3.00;1.10;;;;;;;;;;4998841;28;20245;-35
2022/04/08 10:34:22;;;;;;;3.47;0.87;;;;;;;;;;4998763;28;20806;-35
2022/04/08 10:36:49;;;;;;;3.90;0.90;;;;;;;;;;4997157;28;20209;-35
2022/04/08 10:39:16;;;;;;;3.67;1.10;;;;;;;;;;5001058;28;20687;-36
2022/04/08 10:41:52;;;;;;;3.97;1.07;;;;;;;;;;4999728;28;20266;-36
2022/04/08 10:44:30;;;;;;;3.60;0.93;;;;;;;;;;4999231;28;20579;-36
2022/04/08 10:46:58;;;;;;;4.43;1.30;;;;;;;;;;5000967;28;20388;-35
2022/04/08 10:49:24;;;;;;;3.03;1.23;;;;;;;;;;4995595;28;20185;-36
2022/04/08 10:51:50;;;;;;;3.47;1.13;;;;;;;;;;4996858;28;20207;-35
2022/04/08 10:54:17;;;;;;;2.57;1.00;;;;;;;;;;4999363;28;20447;-35
2022/04/08 10:56:43;;;;;;;3.13;1.00;;;;;;;;;;4998704;28;20453;-35
2022/04/08 10:59:09;;;;;;;5.80;1.10;;;;;;;;;;4993349;28;20269;-36
2022/04/08 11:01:48;;;;;;;3.73;1.10;;;;;;;;;;5000083;28;20287;-36
2022/04/08 11:04:19;;;;;;;3.77;1.10;;;;;;;;;;4997991;28;21155;-36
2022/04/08 11:06:45;;;;;;;3.93;1.40;;;;;;;;;;4996938;28;20175;-36
2022/04/08 11:09:14;;;;;;;4.97;1.10;;;;;;;;;;4994245;28;20180;-36
2022/04/08 11:11:41;;;;;;;4.77;1.20;;;;;;;;;;4993846;28;20528;-35
2022/04/08 11:14:08;;;;;;;8.37;1.83;;;;;;;;;;5000015;28;20746;-35
2022/04/08 11:16:35;;;;;;;10.23;2.10;;;;;;;;;;4996623;28;20541;-36
2022/04/08 11:19:05;;;;;;;9.33;1.60;;;;;;;;;;4997617;28;20176;-35
2022/04/08 11:21:31;;;;;;;3.80;1.70;;;;;;;;;;5000043;28;20295;-35
2022/04/08 11:24:01;;;;;;;7.20;1.93;;;;;;;;;;5004222;28;20343;-35
2022/04/08 11:26:28;;;;;;;8.03;2.17;;;;;;;;;;4998510;28;20290;-35
2022/04/08 11:28:55;;;;;;;7.27;2.27;;;;;;;;;;5000381;28;20180;-35
2022/04/08 11:31:21;;;;;;;10.67;2.77;;;;;;;;;;5000893;28;20176;-35
2022/04/08 11:33:47;;;;;;;12.30;2.97;;;;;;;;;;5001891;28;20299;-35
2022/04/08 11:36:15;;;;;;;6.90;2.63;;;;;;;;;;5001309;28;20211;-35
2022/04/08 11:38:43;;;;;;;7.17;2.03;;;;;;;;;;5000763;28;20181;-36
2022/04/08 11:41:18;;;;;;;7.57;2.50;;;;;;;;;;5003794;28;20218;-35
2022/04/08 11:43:44;;;;;;;7.37;3.00;;;;;;;;;;5001588;28;20601;-35
2022/04/08 11:46:15;;;;;;;10.40;3.20;;;;;;;;;;5002394;28;20177;-35
2022/04/08 11:48:41;;;;;;;11.03;3.03;;;;;;;;;;5002409;28;20620;-35
2022/04/08 11:51:07;;;;;;;8.23;2.47;;;;;;;;;;5000507;28;20184;-35
2022/04/08 11:53:43;;;;;;;8.07;2.37;;;;;;;;;;5002447;28;20476;-35
2022/04/08 11:56:09;;;;;;;5.23;1.43;;;;;;;;;;5000596;28;20195;-35
2022/04/08 11:58:36;;;;;;;12.67;2.03;;;;;;;;;;5005962;28;20667;-35
2022/04/08 12:01:03;;;;;;;8.80;1.70;;;;;;;;;;4999366;28;20211;-35
2022/04/08 12:03:36;;;;;;;5.30;1.50;;;;;;;;;;4998613;28;20658;-35
2022/04/08 12:06:03;;;;;;;7.07;1.63;;;;;;;;;;5003722;28;20242;-36
2022/04/08 12:08:29;;;;;;;8.13;2.20;;;;;;;;;;5004585;28;20177;-36
2022/04/08 12:10:57;;;;;;;9.23;1.87;;;;;;;;;;5002890;28;20214;-35
2022/04/08 12:13:24;;;;;;;6.27;1.90;;;;;;;;;;5005270;28;20530;-36
2022/04/08 12:15:53;;;;;;;2.30;1.10;;;;;;;;;;5003922;28;20196;-36
2022/04/08 12:18:23;;;;;;;4.33;1.30;;;;;;;;;;4995624;28;20173;-35
2022/04/08 12:21:00;;;;;;;4.53;1.50;;;;;;;;;;5005167;28;20791;-35
2022/04/08 12:23:27;;;;;;;2.43;1.20;;;;;;;;;;4995602;28;20605;-35
2022/04/08 12:25:57;;;;;;;7.50;2.03;;;;;;;;;;5000572;28;20180;-35
2022/04/08 12:28:24;;;;;;;5.60;1.73;;;;;;;;;;4997413;28;20238;-35
2022/04/08 12:30:51;;;;;;;3.60;1.20;;;;;;;;;;4997534;28;20180;-35
2022/04/08 12:33:17;;;;;;;4.47;1.10;;;;;;;;;;4995965;28;20172;-35
2022/04/08 12:35:44;;;;;;;2.57;1.07;;;;;;;;;;4997418;28;20196;-35
2022/04/08 12:38:10;;;;;;;5.50;1.20;;;;;;;;;;5000941;28;20572;-36
2022/04/08 12:40:36;;;;;;;4.17;1.17;;;;;;;;;;4991558;28;20600;-35
2022/04/08 12:43:02;;;;;;;5.17;1.60;;;;;;;;;;4996800;28;20188;-35
2022/04/08 12:45:29;;;;;;;4.50;1.03;;;;;;;;;;5001160;28;20180;-36
2022/04/08 12:47:55;;;;;;;6.77;1.20;;;;;;;;;;4996023;28;20172;-35
2022/04/08 12:50:22;;;;;;;5.13;1.10;;;;;;;;;;5002730;28;20761;-35
2022/04/08 12:52:48;;;;;;;6.97;1.30;;;;;;;;;;5002490;28;20180;-35
2022/04/08 12:55:14;;;;;;;6.97;1.30;;;;;;;;;;5004401;28;20432;-35
2022/04/08 12:57:41;;;;;;;3.83;1.00;;;;;;;;;;4999734;28;20199;-36
2022/04/08 13:00:11;;;;;;;5.87;1.03;;;;;;;;;;4998867;28;20360;-35
2022/04/08 13:02:40;;;;;;;2.50;1.10;;;;;;;;;;5003539;28;20177;-35
2022/04/08 13:05:07;;;;;;;4.60;1.20;;;;;;;;;;5003303;28;20164;-35
2022/04/08 13:07:33;;;;;;;3.20;1.13;;;;;;;;;;5000700;28;20946;-35
2022/04/08 13:09:59;;;;;;;6.50;1.30;;;;;;;;;;5001257;28;20184;-36
2022/04/08 13:12:25;;;;;;;6.43;1.43;;;;;;;;;;4999219;28;20403;-35
2022/04/08 13:14:52;;;;;;;2.27;0.80;;;;;;;;;;5002273;28;20181;-35
2022/04/08 13:17:18;;;;;;;4.97;1.27;;;;;;;;;;5001558;28;20192;-36
2022/04/08 13:19:44;;;;;;;5.77;1.00;;;;;;;;;;4998255;28;20220;-35
2022/04/08 13:22:12;;;;;;;3.10;1.00;;;;;;;;;;5000309;28;20279;-36
2022/04/08 13:24:38;;;;;;;4.53;1.20;;;;;;;;;;5002145;28;20263;-35
2022/04/08 13:27:04;;;;;;;3.93;1.20;;;;;;;;;;4994686;28;20314;-35
2022/04/08 13:29:30;;;;;;;3.67;1.20;;;;;;;;;;5003511;28;20298;-36
2022/04/08 13:31:56;;;;;;;2.93;1.00;;;;;;;;;;5000769;28;20212;-36
2022/04/08 13:34:22;;;;;;;3.97;1.27;;;;;;;;;;4999433;28;20187;-35
2022/04/08 13:36:48;;;;;;;2.20;0.70;;;;;;;;;;4998820;28;20437;-35
2022/04/08 13:39:15;;;;;;;4.00;1.27;;;;;;;;;;5003425;28;21162;-35
2022/04/08 13:41:42;;;;;;;2.83;0.90;;;;;;;;;;5004216;28;20176;-35
2022/04/08 13:44:08;;;;;;;2.77;0.70;;;;;;;;;;4999617;28;20223;-36
2022/04/08 13:46:34;;;;;;;2.07;0.90;;;;;;;;;;4998676;28;20184;-36
2022/04/08 13:49:01;;;;;;;1.87;0.70;;;;;;;;;;5005116;28;20199;-36
2022/04/08 13:51:27;;;;;;;2.50;0.80;;;;;;;;;;5002018;28;20183;-36
2022/04/08 13:53:53;;;;;;;5.70;1.00;;;;;;;;;;5001479;28;20188;-36
2022/04/08 13:56:19;;;;;;;2.80;0.90;;;;;;;;;;5001427;28;20249;-36
2022/04/08 13:58:45;;;;;;;5.97;1.47;;;;;;;;;;5004029;28;20663;-35
2022/04/08 14:01:12;;;;;;;3.13;0.90;;;;;;;;;;4999876;28;20206;-35
2022/04/08 14:03:38;;;;;;;9.57;1.20;;;;;;;;;;5000390;28;20195;-35
2022/04/08 14:06:04;;;;;;;11.40;1.40;;;;;;;;;;5005258;28;20168;-35
2022/04/08 14:08:30;;;;;;;7.27;1.20;;;;;;;;;;4994655;28;20937;-34
2022/04/08 14:10:56;;;;;;;4.37;1.00;;;;;;;;;;5001370;28;20272;-35
2022/04/08 14:13:22;;;;;;;4.63;1.10;;;;;;;;;;5003146;28;20628;-35
2022/04/08 14:15:49;;;;;;;8.10;1.33;;;;;;;;;;4998745;28;20188;-35
2022/04/08 14:18:15;;;;;;;3.87;1.03;;;;;;;;;;4997289;28;20177;-34
2022/04/08 14:20:42;;;;;;;1.93;0.90;;;;;;;;;;5001416;28;20367;-35
2022/04/08 14:23:09;;;;;;;3.60;1.00;;;;;;;;;;4999951;28;20183;-35
2022/04/08 14:25:35;;;;;;;4.83;1.00;;;;;;;;;;4998360;28;20211;-35
2022/04/08 14:28:01;;;;;;;22.33;1.90;;;;;;;;;;4996509;28;20172;-35
2022/04/08 14:30:27;;;;;;;33.07;2.70;;;;;;;;;;4998109;28;20172;-35
2022/04/08 14:32:53;;;;;;;15.13;1.63;;;;;;;;;;5001517;28;20442;-35
2022/04/08 14:35:20;;;;;;;5.27;1.30;;;;;;;;;;4996627;28;20493;-34
2022/04/08 14:37:46;;;;;;;12.43;1.50;;;;;;;;;;4996821;28;20754;-35